Time;durP1;ratioP1;P1;durP2;ratioP2;P2;SDS_P1;SDS_P2;PMS_P1;PMS_P2;Temp;Humidity;BMP_temperature;BMP_pressure;BME280_temperature;BME280_humidity;BME280_pressure;Samples;Min_cycle;Max_cycle;Signal;HPM_P1;HPM_P2
2022/05/06 00:00:00;;;;;;;;;26.75;25.00;;;;;;;;5121960;27;51422;-45
2022/05/06 00:02:45;;;;;;;;;25.50;24.00;;;;;;;;5122029;27;51328;-44
2022/05/06 00:05:30;;;;;;;;;29.00;25.75;;;;;;;;5122354;27;51130;-45
2022/05/06 00:08:16;;;;;;;;;33.00;27.75;;;;;;;;5122330;27;51142;-44
2022/05/06 00:11:00;;;;;;;;;29.25;28.00;;;;;;;;5106525;27;51159;-47
2022/05/06 00:13:44;;;;;;;;;26.75;25.00;;;;;;;;5121336;27;51486;-46
2022/05/06 00:16:29;;;;;;;;;36.50;28.25;;;;;;;;5122161;27;51035;-45
2022/05/06 00:19:14;;;;;;;;;27.25;22.50;;;;;;;;5121814;27;51076;-44
2022/05/06 00:22:02;;;;;;;;;26.50;22.25;;;;;;;;5121975;27;51114;-45
2022/05/06 00:24:47;;;;;;;;;23.00;22.50;;;;;;;;5121652;27;51554;-44
2022/05/06 00:27:32;;;;;;;;;23.75;23.00;;;;;;;;5106327;27;51227;-44
2022/05/06 00:30:17;;;;;;;;;21.50;20.25;;;;;;;;5121597;27;51627;-47
2022/05/06 00:33:01;;;;;;;;;25.50;21.25;;;;;;;;5121379;27;51128;-46
2022/05/06 00:35:47;;;;;;;;;24.00;18.50;;;;;;;;5122008;27;51018;-44
2022/05/06 00:38:31;;;;;;;;;22.25;21.50;;;;;;;;5121309;27;51439;-46
2022/05/06 00:41:18;;;;;;;;;17.50;16.50;;;;;;;;5121735;27;51338;-46
2022/05/06 00:44:08;;;;;;;;;20.50;19.75;;;;;;;;5121444;27;51068;-44
2022/05/06 00:46:56;;;;;;;;;19.50;16.50;;;;;;;;5121902;27;51126;-46
2022/05/06 00:49:40;;;;;;;;;17.00;15.00;;;;;;;;5121079;27;51356;-44
2022/05/06 00:52:24;;;;;;;;;15.25;14.75;;;;;;;;5121854;27;51152;-44
2022/05/06 00:55:11;;;;;;;;;16.50;14.25;;;;;;;;5121899;27;51518;-44
2022/05/06 00:57:55;;;;;;;;;23.25;16.00;;;;;;;;5121128;27;51139;-45
2022/05/06 01:00:41;;;;;;;;;17.50;14.00;;;;;;;;5121906;27;51052;-44
2022/05/06 01:03:28;;;;;;;;;11.75;11.00;;;;;;;;5121423;27;51274;-45
2022/05/06 01:06:14;;;;;;;;;20.00;14.25;;;;;;;;5121077;27;51305;-45
2022/05/06 01:08:58;;;;;;;;;17.25;13.75;;;;;;;;5121059;27;51134;-44
2022/05/06 01:11:43;;;;;;;;;16.50;14.75;;;;;;;;5121322;27;51096;-46
2022/05/06 01:14:31;;;;;;;;;13.50;13.50;;;;;;;;5117317;27;51422;-45
2022/05/06 01:17:16;;;;;;;;;15.75;12.00;;;;;;;;5120208;27;51094;-45
2022/05/06 01:20:01;;;;;;;;;13.50;12.25;;;;;;;;5121436;27;51453;-44
2022/05/06 01:22:48;;;;;;;;;15.75;11.25;;;;;;;;5120955;27;51200;-46
2022/05/06 01:25:36;;;;;;;;;15.50;13.25;;;;;;;;5120963;27;51139;-44
2022/05/06 01:28:22;;;;;;;;;13.75;11.00;;;;;;;;5120922;27;51039;-44
2022/05/06 01:31:07;;;;;;;;;14.50;13.00;;;;;;;;5120926;27;51106;-45
2022/05/06 01:33:56;;;;;;;;;14.00;13.50;;;;;;;;5120665;27;51119;-46
2022/05/06 01:36:40;;;;;;;;;17.25;14.50;;;;;;;;5106453;27;51197;-44
2022/05/06 01:39:35;;;;;;;;;12.75;12.75;;;;;;;;5120865;27;51087;-44
2022/05/06 01:42:22;;;;;;;;;17.75;12.75;;;;;;;;5118044;27;51058;-45
2022/05/06 01:45:10;;;;;;;;;18.00;16.50;;;;;;;;5120735;27;51273;-45
2022/05/06 01:47:56;;;;;;;;;19.25;15.00;;;;;;;;5120486;27;51114;-47
2022/05/06 01:50:45;;;;;;;;;13.75;13.00;;;;;;;;5121056;27;51095;-45
2022/05/06 01:53:29;;;;;;;;;14.75;13.25;;;;;;;;5119514;27;51437;-45
2022/05/06 01:56:17;;;;;;;;;20.25;12.50;;;;;;;;5120678;27;51381;-45
2022/05/06 01:59:01;;;;;;;;;15.75;15.50;;;;;;;;5120817;27;51102;-45
2022/05/06 02:01:46;;;;;;;;;17.50;14.75;;;;;;;;5120374;27;51225;-45
2022/05/06 02:07:36;;;;;;;;;17.25;14.25;;;;;;;;5120487;27;51213;-46
2022/05/06 02:10:25;;;;;;;;;16.75;14.00;;;;;;;;5120363;27;51040;-44
2022/05/06 02:13:09;;;;;;;;;13.50;13.50;;;;;;;;5120472;27;51112;-45
2022/05/06 02:15:54;;;;;;;;;19.25;16.75;;;;;;;;5120796;27;51065;-45
2022/05/06 02:18:42;;;;;;;;;18.25;17.75;;;;;;;;5119980;27;51063;-45
2022/05/06 02:21:26;;;;;;;;;19.50;16.75;;;;;;;;5120712;27;51508;-44
2022/05/06 02:24:12;;;;;;;;;20.00;17.75;;;;;;;;5121323;27;50981;-45
2022/05/06 02:26:56;;;;;;;;;18.25;16.50;;;;;;;;5124488;27;51269;-43
2022/05/06 02:35:53;;;;;;;;;24.25;22.00;;;;;;;;5124073;27;51552;-45
2022/05/06 02:38:38;;;;;;;;;30.25;21.50;;;;;;;;5122658;27;51136;-46
2022/05/06 02:41:24;;;;;;;;;23.00;21.50;;;;;;;;5124383;27;51071;-44
2022/05/06 02:44:09;;;;;;;;;22.25;20.00;;;;;;;;5124104;27;51205;-46
2022/05/06 02:46:56;;;;;;;;;20.50;19.00;;;;;;;;5123701;27;51596;-46
2022/05/06 02:49:41;;;;;;;;;20.00;18.75;;;;;;;;5123283;27;51078;-45
2022/05/06 02:52:27;;;;;;;;;16.00;15.00;;;;;;;;5124109;27;51061;-46
2022/05/06 02:55:13;;;;;;;;;17.75;15.25;;;;;;;;5123595;27;51485;-46
2022/05/06 02:57:58;;;;;;;;;21.25;16.00;;;;;;;;5123615;27;51131;-47
2022/05/06 03:00:43;;;;;;;;;17.00;16.00;;;;;;;;5123626;27;51153;-47
2022/05/06 03:03:28;;;;;;;;;21.75;17.00;;;;;;;;5123553;27;51014;-46
2022/05/06 03:06:13;;;;;;;;;18.25;15.25;;;;;;;;5123356;27;51074;-45
2022/05/06 03:09:01;;;;;;;;;19.50;14.25;;;;;;;;5123412;27;51061;-44
2022/05/06 03:11:47;;;;;;;;;16.25;14.00;;;;;;;;5123581;27;52347;-44
2022/05/06 03:14:31;;;;;;;;;14.75;14.00;;;;;;;;5123109;27;51527;-45
2022/05/06 03:17:17;;;;;;;;;15.75;14.00;;;;;;;;5117708;27;51169;-46
2022/05/06 03:20:06;;;;;;;;;19.75;14.00;;;;;;;;5123281;27;51172;-44
2022/05/06 03:22:53;;;;;;;;;15.25;13.50;;;;;;;;5118992;27;51266;-44
2022/05/06 03:25:37;;;;;;;;;11.25;8.50;;;;;;;;5122769;27;51541;-45
2022/05/06 03:28:23;;;;;;;;;9.50;9.50;;;;;;;;5122943;27;52001;-44
2022/05/06 03:31:08;;;;;;;;;12.75;9.75;;;;;;;;5107491;27;51151;-45
2022/05/06 03:33:54;;;;;;;;;15.00;11.00;;;;;;;;5123287;27;51069;-44
2022/05/06 03:36:41;;;;;;;;;10.00;9.50;;;;;;;;5123040;27;51605;-46
2022/05/06 03:39:25;;;;;;;;;16.25;11.25;;;;;;;;5122497;27;50986;-45
2022/05/06 03:42:13;;;;;;;;;14.75;12.50;;;;;;;;5122919;27;51211;-44
2022/05/06 03:45:03;;;;;;;;;15.50;13.50;;;;;;;;5122354;27;51481;-45
2022/05/06 03:47:49;;;;;;;;;15.50;12.00;;;;;;;;5122622;27;51116;-45
2022/05/06 03:53:36;;;;;;;;;17.00;13.00;;;;;;;;5121608;27;51302;-46
2022/05/06 03:56:24;;;;;;;;;15.75;14.75;;;;;;;;5122711;27;51107;-44
2022/05/06 03:59:09;;;;;;;;;16.75;15.25;;;;;;;;5119738;27;50970;-43
2022/05/06 04:01:55;;;;;;;;;15.50;14.50;;;;;;;;5122536;27;51529;-46
2022/05/06 04:04:39;;;;;;;;;16.25;11.00;;;;;;;;5122200;27;51162;-45
2022/05/06 04:07:29;;;;;;;;;16.50;11.75;;;;;;;;5122685;27;51158;-45
2022/05/06 04:10:22;;;;;;;;;14.00;12.50;;;;;;;;5122239;27;51209;-45
2022/05/06 04:13:08;;;;;;;;;16.00;11.00;;;;;;;;5121516;27;51107;-45
2022/05/06 04:15:52;;;;;;;;;15.75;11.25;;;;;;;;5122254;27;51102;-48
2022/05/06 04:18:38;;;;;;;;;16.50;11.00;;;;;;;;5121981;27;51137;-45
2022/05/06 04:24:27;;;;;;;;;14.50;11.25;;;;;;;;5121582;27;51034;-45
2022/05/06 04:27:11;;;;;;;;;17.75;14.25;;;;;;;;5121240;27;51443;-46
2022/05/06 04:29:56;;;;;;;;;13.00;11.75;;;;;;;;5121236;27;51028;-45
2022/05/06 04:32:41;;;;;;;;;17.25;14.75;;;;;;;;5119041;27;51204;-46
2022/05/06 04:35:26;;;;;;;;;17.00;15.00;;;;;;;;5120951;27;51415;-46
2022/05/06 04:38:12;;;;;;;;;18.50;14.50;;;;;;;;5121147;27;51146;-46
2022/05/06 04:40:58;;;;;;;;;17.75;13.25;;;;;;;;5121491;27;51172;-45
2022/05/06 04:43:43;;;;;;;;;17.25;13.50;;;;;;;;5121372;27;51244;-44
2022/05/06 04:46:27;;;;;;;;;14.75;12.00;;;;;;;;5121030;27;51133;-45
2022/05/06 04:49:11;;;;;;;;;15.50;13.75;;;;;;;;5121312;27;51174;-44
2022/05/06 04:51:56;;;;;;;;;8.00;7.50;;;;;;;;5121684;27;51342;-47
2022/05/06 04:54:42;;;;;;;;;6.25;3.00;;;;;;;;5121177;27;51139;-45
2022/05/06 04:57:30;;;;;;;;;8.25;3.75;;;;;;;;5121259;27;51097;-45
2022/05/06 05:00:16;;;;;;;;;6.75;4.25;;;;;;;;5121409;27;51198;-46
2022/05/06 05:03:01;;;;;;;;;7.25;5.25;;;;;;;;5121398;27;51060;-46
2022/05/06 05:05:46;;;;;;;;;4.00;3.00;;;;;;;;5105625;27;51467;-43
2022/05/06 05:08:31;;;;;;;;;7.00;4.25;;;;;;;;5121393;27;51248;-44
2022/05/06 05:11:16;;;;;;;;;4.00;4.00;;;;;;;;5120933;27;51131;-45
2022/05/06 05:14:02;;;;;;;;;8.75;2.50;;;;;;;;5121186;27;51117;-43
2022/05/06 05:16:48;;;;;;;;;6.25;3.25;;;;;;;;5120947;27;51381;-44
2022/05/06 05:19:35;;;;;;;;;7.50;3.00;;;;;;;;5121033;27;51136;-45
2022/05/06 05:22:20;;;;;;;;;4.50;1.50;;;;;;;;5121339;27;51040;-44
2022/05/06 05:25:05;;;;;;;;;7.00;3.50;;;;;;;;5118495;27;51407;-46
2022/05/06 05:27:50;;;;;;;;;3.00;2.00;;;;;;;;5121169;27;51056;-45
2022/05/06 05:30:35;;;;;;;;;3.00;1.00;;;;;;;;5120846;27;51045;-45
2022/05/06 05:33:20;;;;;;;;;2.75;2.00;;;;;;;;5121047;27;51139;-45
2022/05/06 05:36:08;;;;;;;;;3.00;1.25;;;;;;;;5120478;27;51146;-46
2022/05/06 05:38:54;;;;;;;;;1.25;1.00;;;;;;;;5116514;27;51090;-48
2022/05/06 05:41:43;;;;;;;;;3.25;2.50;;;;;;;;5120724;27;51088;-46
2022/05/06 05:50:39;;;;;;;;;2.50;2.00;;;;;;;;5121084;27;51412;-47
2022/05/06 05:53:24;;;;;;;;;3.25;2.00;;;;;;;;5121077;27;51239;-48
2022/05/06 05:56:08;;;;;;;;;2.50;1.00;;;;;;;;5121364;27;51317;-47
2022/05/06 05:58:52;;;;;;;;;2.00;1.00;;;;;;;;5118302;27;51225;-47
2022/05/06 06:01:37;;;;;;;;;2.75;2.75;;;;;;;;5124679;27;51197;-46
2022/05/06 06:04:21;;;;;;;;;5.00;4.00;;;;;;;;5124875;27;51193;-48
2022/05/06 06:07:07;;;;;;;;;24.25;18.00;;;;;;;;5125267;27;51578;-50
2022/05/06 06:09:52;;;;;;;;;15.25;12.50;;;;;;;;5124906;27;51187;-46
2022/05/06 06:12:36;;;;;;;;;9.50;6.25;;;;;;;;5122126;27;51330;-48
2022/05/06 06:15:27;;;;;;;;;5.25;5.00;;;;;;;;5124772;27;51395;-46
2022/05/06 06:18:14;;;;;;;;;4.25;4.00;;;;;;;;5120013;27;51035;-47
2022/05/06 06:21:07;;;;;;;;;7.00;5.00;;;;;;;;5124681;27;51104;-44
2022/05/06 10:17:56;;;;;;;;;6.50;6.50;;;;;;;;3963866;33;5520149;-48
2022/05/06 10:20:45;;;;;;;;;8.25;8.00;;;;;;;;5050113;28;9567;-50
2022/05/06 10:23:49;;;;;;;;;8.50;7.50;;;;;;;;5050074;28;8792;-49
2022/05/06 10:26:38;;;;;;;;;7.25;6.25;;;;;;;;5049808;28;8823;-48
2022/05/06 10:32:55;;;;;;;;;6.75;6.25;;;;;;;;5049808;28;8765;-45
2022/05/06 10:35:47;;;;;;;;;11.00;9.00;;;;;;;;5032377;28;8787;-50
2022/05/06 10:38:33;;;;;;;;;10.00;9.00;;;;;;;;5049861;28;8764;-46
2022/05/06 10:41:24;;;;;;;;;8.75;8.00;;;;;;;;5049863;28;9555;-50
2022/05/06 10:44:28;;;;;;;;;6.00;5.75;;;;;;;;5050204;28;8780;-47
2022/05/06 10:47:12;;;;;;;;;10.25;9.00;;;;;;;;5050000;28;9575;-45
2022/05/06 10:49:57;;;;;;;;;11.25;10.50;;;;;;;;5049662;28;8816;-52
2022/05/06 10:52:43;;;;;;;;;10.00;9.00;;;;;;;;5049655;28;8796;-51
2022/05/06 10:55:27;;;;;;;;;10.75;9.00;;;;;;;;5049793;28;8804;-49
2022/05/06 10:58:13;;;;;;;;;10.00;8.75;;;;;;;;5048886;28;8788;-48
2022/05/06 11:01:01;;;;;;;;;9.50;6.50;;;;;;;;5049484;28;8781;-49
2022/05/06 11:03:52;;;;;;;;;10.75;9.50;;;;;;;;5049556;28;8788;-52
2022/05/06 11:07:10;;;;;;;;;9.00;9.00;;;;;;;;5049279;28;8796;-46
2022/05/06 11:09:56;;;;;;;;;13.00;11.25;;;;;;;;5049343;28;8780;-52
2022/05/06 11:12:59;;;;;;;;;15.75;10.00;;;;;;;;5049324;28;8773;-48
2022/05/06 11:15:55;;;;;;;;;10.75;8.50;;;;;;;;5048786;28;9611;-48
2022/05/06 11:18:43;;;;;;;;;11.00;10.25;;;;;;;;5035426;28;8800;-47
2022/05/06 11:21:31;;;;;;;;;12.00;11.00;;;;;;;;5036063;28;8852;-51
2022/05/06 11:24:16;;;;;;;;;14.00;11.00;;;;;;;;5036139;28;8780;-51
2022/05/06 11:27:21;;;;;;;;;12.75;11.25;;;;;;;;5035439;28;8808;-50
2022/05/06 11:30:05;;;;;;;;;18.50;14.50;;;;;;;;5035642;28;8780;-50
2022/05/06 11:32:57;;;;;;;;;16.75;16.25;;;;;;;;5035707;28;8789;-50
2022/05/06 11:35:50;;;;;;;;;20.75;19.25;;;;;;;;5035852;28;8780;-49
2022/05/06 11:38:39;;;;;;;;;23.75;21.00;;;;;;;;5035755;28;8776;-49
2022/05/06 11:41:25;;;;;;;;;18.00;18.00;;;;;;;;5035683;28;8776;-47
2022/05/06 11:47:26;;;;;;;;;24.50;22.50;;;;;;;;5035368;28;9558;-49
2022/05/06 11:47:28;;;;;;;;;24.50;24.50;;;;;;;;5035518;28;8800;-49
2022/05/06 11:50:20;;;;;;;;;42.00;34.75;;;;;;;;5035353;28;8914;-48
2022/05/06 11:53:08;;;;;;;;;48.75;40.25;;;;;;;;5035209;28;8776;-52
2022/05/06 11:55:59;;;;;;;;;38.50;32.75;;;;;;;;5035416;28;8788;-52
2022/05/06 11:58:43;;;;;;;;;37.00;29.50;;;;;;;;5035681;28;8757;-48
2022/05/06 12:01:37;;;;;;;;;27.00;21.50;;;;;;;;5035368;28;8788;-50
2022/05/06 12:04:30;;;;;;;;;21.25;20.75;;;;;;;;5035377;28;8776;-50
2022/05/06 12:07:24;;;;;;;;;29.25;27.25;;;;;;;;5035165;28;8820;-50
2022/05/06 12:10:10;;;;;;;;;28.00;25.00;;;;;;;;5025016;28;9775;-51
2022/05/06 12:13:04;;;;;;;;;38.00;30.25;;;;;;;;5023565;28;8822;-49
2022/05/06 12:15:48;;;;;;;;;33.50;27.00;;;;;;;;5015061;28;8795;-50
2022/05/06 12:18:36;;;;;;;;;22.50;20.75;;;;;;;;5013766;28;8810;-48
2022/05/06 12:21:24;;;;;;;;;34.00;29.75;;;;;;;;5014937;28;8795;-49
2022/05/06 12:24:08;;;;;;;;;21.50;20.75;;;;;;;;5021500;28;8798;-52
2022/05/06 12:26:57;;;;;;;;;31.00;26.00;;;;;;;;5014806;28;9855;-52
2022/05/06 12:29:42;;;;;;;;;27.25;23.50;;;;;;;;5012818;28;8795;-48
2022/05/06 12:32:30;;;;;;;;;23.25;19.00;;;;;;;;5014964;28;8787;-46
2022/05/06 12:35:16;;;;;;;;;25.50;21.50;;;;;;;;5014864;28;8815;-50
2022/05/06 12:38:01;;;;;;;;;35.50;30.00;;;;;;;;5013967;28;8807;-52
2022/05/06 12:40:49;;;;;;;;;27.00;26.25;;;;;;;;5014646;28;8919;-50
2022/05/06 12:43:34;;;;;;;;;21.50;17.75;;;;;;;;5014494;28;8779;-48
2022/05/06 12:46:28;;;;;;;;;20.25;17.50;;;;;;;;5014324;28;8831;-50
2022/05/06 12:52:17;;;;;;;;;22.00;21.00;;;;;;;;5034545;28;8788;-48
2022/05/06 12:55:05;;;;;;;;;18.25;16.25;;;;;;;;5034051;28;8776;-50
2022/05/06 12:57:51;;;;;;;;;19.00;17.75;;;;;;;;5033557;28;8796;-51
2022/05/06 13:00:37;;;;;;;;;16.75;16.75;;;;;;;;5033680;28;8788;-46
2022/05/06 13:03:21;;;;;;;;;27.00;23.25;;;;;;;;5019250;28;8815;-50
2022/05/06 13:06:05;;;;;;;;;22.75;21.00;;;;;;;;5014230;28;8940;-49
2022/05/06 13:08:51;;;;;;;;;15.25;13.50;;;;;;;;5014649;28;8795;-50
2022/05/06 13:11:37;;;;;;;;;24.75;21.25;;;;;;;;5016695;28;8788;-50
2022/05/06 13:14:22;;;;;;;;;26.75;24.50;;;;;;;;5034091;28;8812;-49
2022/05/06 13:17:10;;;;;;;;;20.50;19.25;;;;;;;;5034099;28;8816;-52
2022/05/06 13:19:54;;;;;;;;;33.50;28.25;;;;;;;;5034216;28;8784;-48
2022/05/06 13:22:40;;;;;;;;;22.00;18.00;;;;;;;;5033806;28;8780;-50
2022/05/06 13:25:26;;;;;;;;;23.50;20.00;;;;;;;;5033840;28;9591;-53
2022/05/06 13:28:11;;;;;;;;;19.25;18.00;;;;;;;;5034007;28;8777;-52
2022/05/06 13:30:56;;;;;;;;;22.00;19.25;;;;;;;;5033735;28;9551;-47
2022/05/06 13:33:40;;;;;;;;;17.00;17.00;;;;;;;;5033656;28;8781;-50
2022/05/06 13:36:26;;;;;;;;;18.75;18.75;;;;;;;;5033807;28;8918;-50
2022/05/06 13:39:10;;;;;;;;;22.75;19.50;;;;;;;;5033769;28;8772;-48
2022/05/06 13:41:54;;;;;;;;;26.00;24.00;;;;;;;;5033475;28;8796;-48
2022/05/06 13:44:39;;;;;;;;;26.50;23.75;;;;;;;;5033551;28;8772;-48
2022/05/06 13:47:24;;;;;;;;;22.00;22.00;;;;;;;;5033898;28;8816;-52
2022/05/06 13:50:09;;;;;;;;;28.00;25.25;;;;;;;;5033564;28;8777;-50
2022/05/06 13:52:53;;;;;;;;;30.50;22.75;;;;;;;;5033448;28;9574;-51
2022/05/06 14:01:44;;;;;;;;;26.25;23.00;;;;;;;;5033369;28;8812;-52
2022/05/06 14:04:31;;;;;;;;;20.75;19.50;;;;;;;;5033494;28;8784;-51
2022/05/06 14:07:15;;;;;;;;;28.00;23.75;;;;;;;;5033242;28;8789;-50
2022/05/06 14:10:02;;;;;;;;;23.25;21.50;;;;;;;;5033606;28;9559;-51
2022/05/06 14:12:49;;;;;;;;;29.25;23.25;;;;;;;;5033442;28;8785;-52
2022/05/06 14:15:36;;;;;;;;;24.00;22.50;;;;;;;;5033223;28;10143;-49
2022/05/06 14:18:22;;;;;;;;;23.00;21.50;;;;;;;;5033179;28;8792;-52
2022/05/06 14:21:06;;;;;;;;;19.00;16.50;;;;;;;;5033527;28;8797;-52
2022/05/06 14:23:56;;;;;;;;;26.25;22.25;;;;;;;;5033427;28;8769;-49
2022/05/06 14:26:42;;;;;;;;;36.25;30.00;;;;;;;;5031794;28;8808;-49
2022/05/06 14:29:31;;;;;;;;;28.25;26.25;;;;;;;;5025477;28;8768;-46
2022/05/06 14:32:16;;;;;;;;;27.75;22.00;;;;;;;;5021874;28;8782;-50
2022/05/06 14:35:16;;;;;;;;;16.00;16.00;;;;;;;;5011833;28;8768;-51
2022/05/06 14:38:00;;;;;;;;;21.50;19.00;;;;;;;;5032242;28;8793;-50
2022/05/06 14:40:45;;;;;;;;;15.50;15.50;;;;;;;;5032557;28;8796;-47
2022/05/06 14:43:30;;;;;;;;;19.75;16.00;;;;;;;;5026951;28;8800;-50
2022/05/06 14:46:15;;;;;;;;;17.50;13.50;;;;;;;;5012252;28;8799;-50
2022/05/06 14:49:05;;;;;;;;;14.25;14.25;;;;;;;;5012192;28;9562;-51
2022/05/06 14:51:50;;;;;;;;;17.25;17.25;;;;;;;;5012681;28;8775;-49
2022/05/06 14:54:34;;;;;;;;;19.25;16.50;;;;;;;;5015940;28;8822;-52
2022/05/06 14:57:22;;;;;;;;;19.25;16.25;;;;;;;;5015613;28;8798;-48
2022/05/06 15:00:11;;;;;;;;;18.50;17.75;;;;;;;;5016278;28;8787;-46
2022/05/06 15:02:55;;;;;;;;;16.25;13.75;;;;;;;;5015766;28;8922;-49
2022/05/06 15:05:41;;;;;;;;;14.00;13.25;;;;;;;;5015960;28;8850;-47
2022/05/06 15:08:26;;;;;;;;;11.25;8.00;;;;;;;;5021221;28;8807;-47
2022/05/06 15:11:11;;;;;;;;;9.75;7.50;;;;;;;;5020839;28;8803;-49
2022/05/06 15:13:58;;;;;;;;;9.50;9.00;;;;;;;;5021243;28;8906;-47
2022/05/06 15:16:43;;;;;;;;;10.75;7.75;;;;;;;;5024193;28;8799;-51
2022/05/06 15:19:28;;;;;;;;;18.00;16.25;;;;;;;;5027548;28;8792;-47
2022/05/06 15:22:13;;;;;;;;;11.75;11.75;;;;;;;;5035310;28;8792;-50
2022/05/06 15:24:58;;;;;;;;;12.00;9.75;;;;;;;;5035839;28;8781;-50
2022/05/06 15:27:45;;;;;;;;;10.75;9.75;;;;;;;;5035013;28;8926;-50
2022/05/06 15:30:31;;;;;;;;;10.75;10.25;;;;;;;;5035662;28;8784;-46
2022/05/06 15:33:16;;;;;;;;;10.25;8.00;;;;;;;;5035040;28;8792;-51
2022/05/06 15:36:00;;;;;;;;;4.50;4.50;;;;;;;;5035403;28;8915;-47
2022/05/06 15:38:45;;;;;;;;;6.75;5.25;;;;;;;;5035084;28;8785;-47
2022/05/06 15:41:29;;;;;;;;;10.75;8.00;;;;;;;;5028593;28;8796;-50
2022/05/06 15:44:15;;;;;;;;;15.25;9.50;;;;;;;;5035270;28;8784;-52
2022/05/06 15:47:05;;;;;;;;;5.00;4.50;;;;;;;;5035524;28;8804;-50
2022/05/06 15:49:52;;;;;;;;;4.00;2.00;;;;;;;;5028033;28;8804;-51
2022/05/06 15:52:37;;;;;;;;;5.50;3.75;;;;;;;;5031403;28;8776;-51
2022/05/06 15:55:21;;;;;;;;;5.00;3.00;;;;;;;;5020581;28;9759;-46
2022/05/06 15:58:07;;;;;;;;;6.50;6.00;;;;;;;;5017669;28;8806;-50
2022/05/06 16:00:56;;;;;;;;;3.75;3.75;;;;;;;;5019694;28;8778;-51
2022/05/06 16:03:40;;;;;;;;;10.50;8.00;;;;;;;;5023501;28;8779;-50
2022/05/06 16:06:25;;;;;;;;;9.75;6.75;;;;;;;;5023121;28;8811;-48
2022/05/06 16:09:10;;;;;;;;;15.75;15.75;;;;;;;;5021568;28;8828;-49
2022/05/06 16:11:55;;;;;;;;;26.25;23.50;;;;;;;;5022193;28;8783;-47
2022/05/06 16:17:45;;;;;;;;;25.00;20.75;;;;;;;;5023618;28;8811;-51
2022/05/06 16:20:30;;;;;;;;;22.50;19.50;;;;;;;;5021129;28;8761;-50
2022/05/06 16:23:16;;;;;;;;;19.25;17.75;;;;;;;;5022504;28;8790;-47
2022/05/06 16:26:04;;;;;;;;;17.25;15.25;;;;;;;;5020761;28;8786;-51
2022/05/06 16:28:48;;;;;;;;;15.25;13.00;;;;;;;;5019954;28;8776;-46
2022/05/06 16:31:33;;;;;;;;;15.00;14.00;;;;;;;;5019220;28;8778;-46
2022/05/06 16:37:25;;;;;;;;;21.75;19.50;;;;;;;;5022966;28;8775;-51
2022/05/06 16:40:19;;;;;;;;;23.50;22.25;;;;;;;;5020057;28;8864;-50
2022/05/06 16:43:04;;;;;;;;;26.25;21.75;;;;;;;;5019880;28;8815;-53
2022/05/06 16:45:51;;;;;;;;;24.25;18.00;;;;;;;;5015962;28;8811;-49
2022/05/06 16:48:35;;;;;;;;;15.75;13.50;;;;;;;;5031937;28;8780;-47
2022/05/06 16:51:19;;;;;;;;;17.00;14.00;;;;;;;;5034049;28;9555;-48
2022/05/06 16:54:05;;;;;;;;;13.25;12.75;;;;;;;;5025636;28;8787;-48
2022/05/06 16:56:53;;;;;;;;;19.50;19.25;;;;;;;;5019331;28;8799;-49
2022/05/06 16:59:37;;;;;;;;;19.25;16.25;;;;;;;;5018819;28;8799;-48
2022/05/06 17:02:22;;;;;;;;;23.00;18.75;;;;;;;;5018352;28;9505;-48
2022/05/06 17:05:07;;;;;;;;;15.00;15.00;;;;;;;;5019610;28;8788;-46
2022/05/06 17:07:51;;;;;;;;;29.50;26.25;;;;;;;;5030527;28;8792;-49
2022/05/06 17:10:39;;;;;;;;;31.50;23.25;;;;;;;;5033568;28;8772;-51
2022/05/06 17:13:26;;;;;;;;;36.00;30.25;;;;;;;;5033829;28;8788;-51
2022/05/06 17:16:14;;;;;;;;;29.50;28.75;;;;;;;;5018385;28;8794;-50
2022/05/06 17:18:58;;;;;;;;;33.75;30.00;;;;;;;;5014500;28;8787;-51
2022/05/06 17:21:43;;;;;;;;;41.00;35.75;;;;;;;;5014233;28;8795;-49
2022/05/06 17:24:27;;;;;;;;;40.75;34.00;;;;;;;;5033506;28;8796;-50
2022/05/06 17:27:12;;;;;;;;;47.50;39.25;;;;;;;;5033654;28;8792;-48
2022/05/06 17:29:59;;;;;;;;;49.75;39.25;;;;;;;;5033928;28;8784;-52
2022/05/06 17:32:47;;;;;;;;;47.50;40.50;;;;;;;;5033752;28;8885;-48
2022/05/06 17:35:31;;;;;;;;;54.50;43.25;;;;;;;;5032174;28;8788;-48
2022/05/06 17:38:17;;;;;;;;;52.25;43.00;;;;;;;;5033739;28;8796;-49
2022/05/06 17:41:02;;;;;;;;;50.50;41.25;;;;;;;;5033959;28;8804;-50
2022/05/06 17:43:52;;;;;;;;;25.00;22.50;;;;;;;;5033765;28;8777;-50
2022/05/06 17:46:40;;;;;;;;;13.25;10.00;;;;;;;;5033622;28;8816;-49
2022/05/06 17:49:24;;;;;;;;;13.00;11.75;;;;;;;;5021406;28;8919;-49
2022/05/06 17:52:08;;;;;;;;;31.75;26.50;;;;;;;;5018041;28;8796;-50
2022/05/06 17:54:54;;;;;;;;;29.75;22.50;;;;;;;;5019864;28;8776;-48
2022/05/06 17:57:38;;;;;;;;;12.00;8.75;;;;;;;;5015318;28;8822;-50
2022/05/06 18:03:25;;;;;;;;;5.75;4.00;;;;;;;;5019028;28;9562;-47
2022/05/06 18:06:10;;;;;;;;;5.75;4.00;;;;;;;;5019512;28;8788;-49
2022/05/06 18:08:55;;;;;;;;;5.50;5.25;;;;;;;;5017832;28;9542;-46
2022/05/06 18:11:40;;;;;;;;;6.50;5.50;;;;;;;;5017047;28;8782;-48
2022/05/06 18:14:24;;;;;;;;;8.25;7.50;;;;;;;;5015672;28;8791;-48
2022/05/06 18:17:14;;;;;;;;;19.75;18.00;;;;;;;;5017831;28;9602;-52
2022/05/06 18:19:58;;;;;;;;;15.00;13.75;;;;;;;;5018837;28;8779;-50
2022/05/06 18:22:43;;;;;;;;;11.00;9.50;;;;;;;;5013956;28;8783;-47
2022/05/06 18:25:28;;;;;;;;;8.75;5.75;;;;;;;;5019657;28;8824;-46
2022/05/06 18:28:12;;;;;;;;;24.75;24.75;;;;;;;;5016440;28;8802;-47
2022/05/06 18:30:57;;;;;;;;;69.25;53.25;;;;;;;;5013169;28;8952;-48
2022/05/06 18:33:43;;;;;;;;;73.25;57.00;;;;;;;;5019640;28;8767;-51
2022/05/06 18:36:27;;;;;;;;;70.00;55.25;;;;;;;;5017981;28;8790;-48
2022/05/06 18:39:13;;;;;;;;;71.25;58.00;;;;;;;;5018100;28;8778;-47
2022/05/06 18:41:58;;;;;;;;;73.00;59.25;;;;;;;;5015901;28;8795;-45
2022/05/06 18:44:43;;;;;;;;;76.75;66.50;;;;;;;;5019104;28;8767;-51
2022/05/06 18:47:28;;;;;;;;;78.25;70.50;;;;;;;;5016681;28;8806;-49
2022/05/06 18:50:13;;;;;;;;;87.00;76.50;;;;;;;;5015720;28;8910;-49
2022/05/06 18:52:59;;;;;;;;;97.25;87.25;;;;;;;;5022913;28;8804;-50
2022/05/06 18:55:43;;;;;;;;;90.25;79.50;;;;;;;;5035842;28;9544;-51
2022/05/06 18:58:30;;;;;;;;;90.00;81.25;;;;;;;;5035758;28;8781;-47
2022/05/06 19:01:14;;;;;;;;;89.25;82.25;;;;;;;;5027662;28;8807;-45
2022/05/06 19:03:59;;;;;;;;;98.25;87.50;;;;;;;;5024842;28;8804;-46
2022/05/06 19:06:44;;;;;;;;;105.00;93.25;;;;;;;;5016453;28;8794;-50
2022/05/06 19:09:30;;;;;;;;;78.75;70.75;;;;;;;;5015118;28;8913;-47
2022/05/06 19:12:16;;;;;;;;;103.25;94.00;;;;;;;;5018236;28;8799;-46
2022/05/06 19:15:01;;;;;;;;;31.50;28.25;;;;;;;;5016026;28;8895;-50
2022/05/06 19:17:55;;;;;;;;;15.00;11.25;;;;;;;;5016012;28;8799;-48
2022/05/06 19:20:39;;;;;;;;;12.25;11.75;;;;;;;;5031779;28;8788;-46
2022/05/06 19:26:34;;;;;;;;;68.25;48.75;;;;;;;;5035335;28;9689;-47
2022/05/06 19:29:19;;;;;;;;;17.00;14.00;;;;;;;;5035498;28;8812;-50
2022/05/06 19:32:06;;;;;;;;;24.75;20.25;;;;;;;;5035679;28;8780;-49
2022/05/06 19:34:51;;;;;;;;;50.75;36.00;;;;;;;;5035226;28;8760;-47
2022/05/06 19:37:42;;;;;;;;;44.00;31.75;;;;;;;;5035259;28;8788;-49
2022/05/06 19:40:27;;;;;;;;;15.00;10.25;;;;;;;;5035366;28;8780;-45
2022/05/06 19:43:12;;;;;;;;;13.25;11.25;;;;;;;;5035400;28;8764;-48
2022/05/06 19:45:56;;;;;;;;;16.50;12.00;;;;;;;;5035125;28;8808;-46
2022/05/06 19:48:41;;;;;;;;;9.25;8.50;;;;;;;;5035171;28;8785;-48
2022/05/06 19:54:30;;;;;;;;;62.75;47.50;;;;;;;;5034933;28;8820;-47
2022/05/06 19:57:16;;;;;;;;;83.75;73.75;;;;;;;;5035066;28;8792;-50
2022/05/06 20:00:00;;;;;;;;;89.25;82.00;;;;;;;;5035123;28;8772;-52
2022/05/06 20:02:48;;;;;;;;;103.00;95.25;;;;;;;;5035012;28;8777;-51
2022/05/06 20:05:33;;;;;;;;;116.50;104.00;;;;;;;;5034532;28;8831;-48
2022/05/06 20:08:20;;;;;;;;;107.00;101.50;;;;;;;;5033954;28;8777;-52
2022/05/06 20:11:06;;;;;;;;;117.75;107.75;;;;;;;;5045748;28;8919;-47
2022/05/06 20:13:50;;;;;;;;;114.25;107.00;;;;;;;;5034816;28;8792;-49
2022/05/06 20:16:35;;;;;;;;;112.50;99.50;;;;;;;;5034834;28;8792;-48
2022/05/06 20:19:20;;;;;;;;;122.00;111.50;;;;;;;;5034057;28;8812;-51
2022/05/06 20:22:06;;;;;;;;;116.50;110.75;;;;;;;;5034059;28;9595;-50
2022/05/06 20:24:53;;;;;;;;;114.75;106.50;;;;;;;;5034640;28;8780;-49
2022/05/06 20:27:43;;;;;;;;;119.75;107.00;;;;;;;;5034507;28;8804;-47
2022/05/06 20:30:39;;;;;;;;;104.50;102.75;;;;;;;;5034715;28;8788;-49
2022/05/06 20:33:24;;;;;;;;;119.75;110.00;;;;;;;;5034143;28;9539;-50
2022/05/06 20:36:10;;;;;;;;;145.00;136.50;;;;;;;;5034583;28;8776;-49
2022/05/06 20:38:55;;;;;;;;;133.00;123.25;;;;;;;;5034069;28;8812;-47
2022/05/06 20:41:45;;;;;;;;;126.75;117.50;;;;;;;;5034493;28;8785;-49
2022/05/06 20:44:31;;;;;;;;;89.25;79.75;;;;;;;;5034424;28;8804;-51
2022/05/06 20:47:22;;;;;;;;;95.25;84.00;;;;;;;;5034577;28;8808;-47
2022/05/06 20:50:07;;;;;;;;;81.00;72.00;;;;;;;;5033365;28;8804;-48
2022/05/06 20:52:51;;;;;;;;;78.00;72.00;;;;;;;;5015311;28;9662;-48
2022/05/06 20:55:35;;;;;;;;;73.25;58.75;;;;;;;;5019165;28;8803;-51
2022/05/06 21:01:29;;;;;;;;;70.00;53.00;;;;;;;;5031152;28;8780;-52
2022/05/06 21:04:13;;;;;;;;;65.50;51.50;;;;;;;;5022345;28;8771;-53
2022/05/06 21:06:58;;;;;;;;;64.00;49.50;;;;;;;;5017246;28;8827;-49